sensor_id;sensor_type;location;lat;lon;timestamp;pressure;altitude;pressure_sealevel;temperature;humidity
18022;BME280;9136;48.822;7.966;2023-04-28T00:02:11;99984.81;;;12.69;100.00
18022;BME280;9136;48.822;7.966;2023-04-28T00:04:59;100002.19;;;12.73;100.00
18022;BME280;9136;48.822;7.966;2023-04-28T00:07:46;99972.78;;;12.64;100.00
18022;BME280;9136;48.822;7.966;2023-04-28T00:10:35;99967.78;;;12.57;100.00
18022;BME280;9136;48.822;7.966;2023-04-28T00:13:23;99950.53;;;12.50;100.00
18022;BME280;9136;48.822;7.966;2023-04-28T00:16:11;99959.81;;;12.59;100.00
18022;BME280;9136;48.822;7.966;2023-04-28T00:18:59;99954.09;;;12.49;100.00
18022;BME280;9136;48.822;7.966;2023-04-28T00:21:47;99938.47;;;12.45;100.00
18022;BME280;9136;48.822;7.966;2023-04-28T00:24:35;99980.06;;;12.77;100.00
18022;BME280;9136;48.822;7.966;2023-04-28T00:27:24;99970.56;;;12.73;100.00
18022;BME280;9136;48.822;7.966;2023-04-28T00:30:12;99946.56;;;12.60;100.00
18022;BME280;9136;48.822;7.966;2023-04-28T00:33:00;99967.94;;;12.73;100.00
18022;BME280;9136;48.822;7.966;2023-04-28T00:35:47;99940.16;;;12.47;100.00
18022;BME280;9136;48.822;7.966;2023-04-28T00:38:35;99955.41;;;12.59;100.00
18022;BME280;9136;48.822;7.966;2023-04-28T00:41:23;99960.94;;;12.53;100.00
18022;BME280;9136;48.822;7.966;2023-04-28T00:44:13;99943.63;;;12.48;100.00
18022;BME280;9136;48.822;7.966;2023-04-28T00:47:00;99963.56;;;12.53;100.00
18022;BME280;9136;48.822;7.966;2023-04-28T00:49:49;99947.75;;;12.53;100.00
18022;BME280;9136;48.822;7.966;2023-04-28T00:52:37;99942.38;;;12.56;100.00
18022;BME280;9136;48.822;7.966;2023-04-28T00:55:26;99934.94;;;12.46;100.00
18022;BME280;9136;48.822;7.966;2023-04-28T00:58:18;99961.03;;;12.71;100.00
18022;BME280;9136;48.822;7.966;2023-04-28T01:01:09;99935.03;;;12.63;100.00
18022;BME280;9136;48.822;7.966;2023-04-28T01:03:57;99937.88;;;12.58;100.00
18022;BME280;9136;48.822;7.966;2023-04-28T01:06:45;99917.41;;;12.45;100.00
18022;BME280;9136;48.822;7.966;2023-04-28T01:09:33;99923.50;;;12.47;100.00
18022;BME280;9136;48.822;7.966;2023-04-28T01:12:21;99945.94;;;12.55;100.00
18022;BME280;9136;48.822;7.966;2023-04-28T01:15:14;99916.84;;;12.38;100.00
18022;BME280;9136;48.822;7.966;2023-04-28T01:18:04;99925.59;;;12.39;100.00
18022;BME280;9136;48.822;7.966;2023-04-28T01:20:52;99936.72;;;12.45;100.00
18022;BME280;9136;48.822;7.966;2023-04-28T01:23:40;99929.88;;;12.41;100.00
18022;BME280;9136;48.822;7.966;2023-04-28T01:26:29;99932.94;;;12.51;100.00
18022;BME280;9136;48.822;7.966;2023-04-28T01:29:17;99907.16;;;12.39;100.00
18022;BME280;9136;48.822;7.966;2023-04-28T01:32:05;99974.69;;;12.60;100.00
18022;BME280;9136;48.822;7.966;2023-04-28T01:34:53;99992.25;;;12.41;100.00
18022;BME280;9136;48.822;7.966;2023-04-28T01:37:41;99925.56;;;12.20;100.00
18022;BME280;9136;48.822;7.966;2023-04-28T01:40:29;99907.00;;;12.23;100.00
18022;BME280;9136;48.822;7.966;2023-04-28T01:43:18;99926.88;;;12.30;100.00
18022;BME280;9136;48.822;7.966;2023-04-28T01:46:06;99906.44;;;12.16;100.00
18022;BME280;9136;48.822;7.966;2023-04-28T01:48:54;99918.78;;;12.14;100.00
18022;BME280;9136;48.822;7.966;2023-04-28T01:51:42;99902.28;;;12.11;100.00
18022;BME280;9136;48.822;7.966;2023-04-28T01:54:29;99904.91;;;12.11;100.00
18022;BME280;9136;48.822;7.966;2023-04-28T01:57:17;99943.69;;;12.27;100.00
18022;BME280;9136;48.822;7.966;2023-04-28T02:00:07;99937.59;;;12.25;100.00
18022;BME280;9136;48.822;7.966;2023-04-28T02:02:55;99957.31;;;12.17;100.00
18022;BME280;9136;48.822;7.966;2023-04-28T02:05:43;99965.94;;;12.20;100.00
18022;BME280;9136;48.822;7.966;2023-04-28T02:08:31;99971.50;;;12.33;100.00
18022;BME280;9136;48.822;7.966;2023-04-28T02:11:19;99939.91;;;12.13;100.00
18022;BME280;9136;48.822;7.966;2023-04-28T02:14:07;99988.03;;;12.37;100.00
18022;BME280;9136;48.822;7.966;2023-04-28T02:16:57;99984.56;;;12.36;100.00
18022;BME280;9136;48.822;7.966;2023-04-28T02:19:45;99979.63;;;12.28;100.00
18022;BME280;9136;48.822;7.966;2023-04-28T02:22:32;99973.13;;;12.17;100.00
18022;BME280;9136;48.822;7.966;2023-04-28T02:25:20;99959.09;;;12.16;100.00
18022;BME280;9136;48.822;7.966;2023-04-28T02:28:08;99965.94;;;12.20;100.00
18022;BME280;9136;48.822;7.966;2023-04-28T02:31:03;99985.75;;;12.29;100.00
18022;BME280;9136;48.822;7.966;2023-04-28T02:33:52;99989.38;;;12.26;100.00
18022;BME280;9136;48.822;7.966;2023-04-28T02:36:40;99958.28;;;12.14;100.00
18022;BME280;9136;48.822;7.966;2023-04-28T02:39:28;99961.66;;;12.18;100.00
18022;BME280;9136;48.822;7.966;2023-04-28T02:42:16;99985.34;;;12.38;100.00
18022;BME280;9136;48.822;7.966;2023-04-28T02:45:05;99977.09;;;12.46;100.00
18022;BME280;9136;48.822;7.966;2023-04-28T02:47:53;99958.22;;;12.36;100.00
18022;BME280;9136;48.822;7.966;2023-04-28T02:50:44;99976.25;;;12.45;100.00
18022;BME280;9136;48.822;7.966;2023-04-28T02:53:32;99960.00;;;12.36;100.00
18022;BME280;9136;48.822;7.966;2023-04-28T02:56:20;99969.78;;;12.32;100.00
18022;BME280;9136;48.822;7.966;2023-04-28T02:59:07;99944.06;;;12.18;100.00
18022;BME280;9136;48.822;7.966;2023-04-28T03:01:55;99919.53;;;11.97;100.00
18022;BME280;9136;48.822;7.966;2023-04-28T03:04:43;99918.94;;;11.91;100.00
18022;BME280;9136;48.822;7.966;2023-04-28T03:07:32;99922.56;;;11.88;100.00
18022;BME280;9136;48.822;7.966;2023-04-28T03:10:20;99922.28;;;11.94;100.00
18022;BME280;9136;48.822;7.966;2023-04-28T03:13:08;99918.53;;;12.00;100.00
18022;BME280;9136;48.822;7.966;2023-04-28T03:15:56;99936.81;;;12.23;100.00
18022;BME280;9136;48.822;7.966;2023-04-28T03:18:44;99936.63;;;12.28;100.00
18022;BME280;9136;48.822;7.966;2023-04-28T03:21:31;99943.06;;;12.21;100.00
18022;BME280;9136;48.822;7.966;2023-04-28T03:24:21;99931.34;;;12.28;100.00
18022;BME280;9136;48.822;7.966;2023-04-28T03:27:09;99919.03;;;12.28;100.00
18022;BME280;9136;48.822;7.966;2023-04-28T03:29:59;99921.09;;;12.22;100.00
18022;BME280;9136;48.822;7.966;2023-04-28T03:32:48;99891.69;;;11.92;100.00
18022;BME280;9136;48.822;7.966;2023-04-28T03:35:35;99896.09;;;11.91;100.00
18022;BME280;9136;48.822;7.966;2023-04-28T03:38:23;99895.84;;;11.97;100.00
18022;BME280;9136;48.822;7.966;2023-04-28T03:41:13;99868.06;;;11.90;100.00
18022;BME280;9136;48.822;7.966;2023-04-28T03:44:03;99917.94;;;12.14;100.00
18022;BME280;9136;48.822;7.966;2023-04-28T03:46:51;99882.00;;;12.13;100.00
18022;BME280;9136;48.822;7.966;2023-04-28T03:49:46;99879.66;;;12.07;100.00
18022;BME280;9136;48.822;7.966;2023-04-28T03:52:34;99876.50;;;11.98;100.00
18022;BME280;9136;48.822;7.966;2023-04-28T03:55:22;99883.19;;;12.06;100.00
18022;BME280;9136;48.822;7.966;2023-04-28T03:58:15;99885.31;;;11.97;100.00
18022;BME280;9136;48.822;7.966;2023-04-28T04:01:04;99900.03;;;12.01;100.00
18022;BME280;9136;48.822;7.966;2023-04-28T04:03:52;99877.41;;;11.97;100.00
18022;BME280;9136;48.822;7.966;2023-04-28T04:06:40;99918.31;;;12.04;100.00
18022;BME280;9136;48.822;7.966;2023-04-28T04:09:30;99921.03;;;12.03;100.00
18022;BME280;9136;48.822;7.966;2023-04-28T04:12:19;99884.00;;;11.87;100.00
18022;BME280;9136;48.822;7.966;2023-04-28T04:15:09;99904.53;;;11.99;100.00
18022;BME280;9136;48.822;7.966;2023-04-28T04:17:57;99884.00;;;11.87;100.00
18022;BME280;9136;48.822;7.966;2023-04-28T04:20:45;99880.50;;;11.87;100.00
18022;BME280;9136;48.822;7.966;2023-04-28T04:23:33;99888.13;;;11.93;100.00
18022;BME280;9136;48.822;7.966;2023-04-28T04:26:21;99867.94;;;11.93;100.00
18022;BME280;9136;48.822;7.966;2023-04-28T04:29:09;99891.22;;;12.02;100.00
18022;BME280;9136;48.822;7.966;2023-04-28T04:31:59;99893.53;;;12.10;100.00
18022;BME280;9136;48.822;7.966;2023-04-28T04:34:46;99858.53;;;11.88;100.00
18022;BME280;9136;48.822;7.966;2023-04-28T04:37:34;99901.16;;;12.16;100.00
18022;BME280;9136;48.822;7.966;2023-04-28T04:40:23;99866.28;;;11.91;100.00
18022;BME280;9136;48.822;7.966;2023-04-28T04:43:13;99884.66;;;11.92;100.00
18022;BME280;9136;48.822;7.966;2023-04-28T04:46:01;99855.47;;;11.76;100.00
18022;BME280;9136;48.822;7.966;2023-04-28T04:49:00;99879.00;;;11.81;100.00
18022;BME280;9136;48.822;7.966;2023-04-28T04:51:48;99863.91;;;11.85;100.00
18022;BME280;9136;48.822;7.966;2023-04-28T04:54:36;99883.66;;;11.95;100.00
18022;BME280;9136;48.822;7.966;2023-04-28T04:57:26;99888.13;;;11.93;100.00
18022;BME280;9136;48.822;7.966;2023-04-28T05:00:16;99897.63;;;11.97;100.00
18022;BME280;9136;48.822;7.966;2023-04-28T05:03:06;99871.09;;;11.81;100.00
18022;BME280;9136;48.822;7.966;2023-04-28T05:05:56;99860.03;;;11.93;100.00
18022;BME280;9136;48.822;7.966;2023-04-28T05:08:45;99857.22;;;11.98;100.00
18022;BME280;9136;48.822;7.966;2023-04-28T05:11:33;99901.28;;;12.13;100.00
18022;BME280;9136;48.822;7.966;2023-04-28T05:14:20;99866.47;;;12.07;100.00
18022;BME280;9136;48.822;7.966;2023-04-28T05:17:08;99854.72;;;12.14;100.00
18022;BME280;9136;48.822;7.966;2023-04-28T05:19:58;99863.50;;;12.33;100.00
18022;BME280;9136;48.822;7.966;2023-04-28T05:22:47;99848.19;;;12.22;100.00
18022;BME280;9136;48.822;7.966;2023-04-28T05:25:35;99843.72;;;12.24;100.00
18022;BME280;9136;48.822;7.966;2023-04-28T05:28:25;99866.91;;;12.35;100.00
18022;BME280;9136;48.822;7.966;2023-04-28T05:31:18;99847.34;;;12.22;100.00
18022;BME280;9136;48.822;7.966;2023-04-28T05:34:11;99819.53;;;12.16;100.00
18022;BME280;9136;48.822;7.966;2023-04-28T05:36:59;99852.63;;;12.22;100.00
18022;BME280;9136;48.822;7.966;2023-04-28T05:39:49;99855.31;;;12.20;100.00
18022;BME280;9136;48.822;7.966;2023-04-28T05:42:37;99850.41;;;12.13;100.00
18022;BME280;9136;48.822;7.966;2023-04-28T05:45:25;99868.41;;;12.22;100.00
18022;BME280;9136;48.822;7.966;2023-04-28T05:48:13;99837.22;;;12.13;100.00
18022;BME280;9136;48.822;7.966;2023-04-28T05:51:01;99858.72;;;12.22;100.00
18022;BME280;9136;48.822;7.966;2023-04-28T05:53:48;99851.41;;;12.10;100.00
18022;BME280;9136;48.822;7.966;2023-04-28T05:56:38;99867.63;;;12.20;100.00
18022;BME280;9136;48.822;7.966;2023-04-28T05:59:25;99839.22;;;12.08;100.00
18022;BME280;9136;48.822;7.966;2023-04-28T06:02:13;99863.22;;;12.20;100.00
18022;BME280;9136;48.822;7.966;2023-04-28T06:05:02;99859.47;;;12.26;100.00
18022;BME280;9136;48.822;7.966;2023-04-28T06:07:50;99848.53;;;12.15;100.00
18022;BME280;9136;48.822;7.966;2023-04-28T06:10:38;99828.41;;;12.14;100.00
18022;BME280;9136;48.822;7.966;2023-04-28T06:13:28;99834.97;;;12.24;100.00
18022;BME280;9136;48.822;7.966;2023-04-28T06:16:16;99852.72;;;12.39;100.00
18022;BME280;9136;48.822;7.966;2023-04-28T06:19:04;99819.16;;;12.24;100.00
18022;BME280;9136;48.822;7.966;2023-04-28T06:21:52;99846.66;;;12.37;100.00
18022;BME280;9136;48.822;7.966;2023-04-28T06:24:44;99838.09;;;12.32;100.00
18022;BME280;9136;48.822;7.966;2023-04-28T06:27:33;99856.81;;;12.45;100.00
18022;BME280;9136;48.822;7.966;2023-04-28T06:30:23;99848.66;;;12.51;100.00
18022;BME280;9136;48.822;7.966;2023-04-28T06:33:11;99847.00;;;12.48;100.00
18022;BME280;9136;48.822;7.966;2023-04-28T06:36:00;99841.50;;;12.53;100.00
18022;BME280;9136;48.822;7.966;2023-04-28T06:38:47;99847.38;;;12.59;100.00
18022;BME280;9136;48.822;7.966;2023-04-28T06:41:37;99856.47;;;12.71;100.00
18022;BME280;9136;48.822;7.966;2023-04-28T06:44:25;99838.03;;;12.52;100.00
18022;BME280;9136;48.822;7.966;2023-04-28T06:47:14;99850.06;;;12.58;100.00
18022;BME280;9136;48.822;7.966;2023-04-28T06:50:02;99872.78;;;12.79;100.00
18022;BME280;9136;48.822;7.966;2023-04-28T06:52:54;99856.47;;;12.71;100.00
18022;BME280;9136;48.822;7.966;2023-04-28T06:55:44;99864.00;;;12.79;100.00
18022;BME280;9136;48.822;7.966;2023-04-28T06:58:32;99861.81;;;12.70;100.00
18022;BME280;9136;48.822;7.966;2023-04-28T07:01:20;99862.91;;;12.66;100.00
18022;BME280;9136;48.822;7.966;2023-04-28T07:04:09;99863.19;;;12.59;100.00
18022;BME280;9136;48.822;7.966;2023-04-28T07:06:57;99879.06;;;12.77;100.00
18022;BME280;9136;48.822;7.966;2023-04-28T07:09:44;99859.03;;;12.73;100.00
18022;BME280;9136;48.822;7.966;2023-04-28T07:12:32;99867.59;;;12.78;100.00
18022;BME280;9136;48.822;7.966;2023-04-28T07:15:20;99879.47;;;12.86;100.00
18022;BME280;9136;48.822;7.966;2023-04-28T07:18:09;99865.28;;;12.89;100.00
18022;BME280;9136;48.822;7.966;2023-04-28T07:20:58;99884.81;;;13.04;100.00
18022;BME280;9136;48.822;7.966;2023-04-28T07:23:46;99882.22;;;13.02;100.00
18022;BME280;9136;48.822;7.966;2023-04-28T07:26:34;99871.97;;;12.96;100.00
18022;BME280;9136;48.822;7.966;2023-04-28T07:29:24;99863.44;;;12.91;100.00
18022;BME280;9136;48.822;7.966;2023-04-28T07:32:14;99859.84;;;12.92;100.00
18022;BME280;9136;48.822;7.966;2023-04-28T07:35:15;99871.31;;;13.10;100.00
18022;BME280;9136;48.822;7.966;2023-04-28T07:38:48;99875.22;;;13.01;100.00
18022;BME280;9136;48.822;7.966;2023-04-28T07:41:40;99890.00;;;13.24;100.00
18022;BME280;9136;48.822;7.966;2023-04-28T07:44:30;99893.31;;;13.28;100.00
18022;BME280;9136;48.822;7.966;2023-04-28T07:47:18;99870.25;;;13.14;100.00
18022;BME280;9136;48.822;7.966;2023-04-28T07:50:07;99868.38;;;13.16;100.00
18022;BME280;9136;48.822;7.966;2023-04-28T07:52:55;99887.19;;;13.27;100.00
18022;BME280;9136;48.822;7.966;2023-04-28T07:55:44;99882.69;;;13.29;100.00
18022;BME280;9136;48.822;7.966;2023-04-28T07:58:34;99877.28;;;13.32;100.00
18022;BME280;9136;48.822;7.966;2023-04-28T08:01:25;99901.88;;;13.50;100.00
18022;BME280;9136;48.822;7.966;2023-04-28T08:04:13;99911.84;;;13.62;100.00
18022;BME280;9136;48.822;7.966;2023-04-28T08:07:03;99893.97;;;13.50;100.00
18022;BME280;9136;48.822;7.966;2023-04-28T08:09:54;99926.59;;;13.66;100.00
18022;BME280;9136;48.822;7.966;2023-04-28T08:12:48;99911.00;;;13.62;100.00
18022;BME280;9136;48.822;7.966;2023-04-28T08:15:35;99915.03;;;13.52;100.00
18022;BME280;9136;48.822;7.966;2023-04-28T08:18:24;99920.53;;;13.64;100.00
18022;BME280;9136;48.822;7.966;2023-04-28T08:21:12;99903.94;;;13.62;100.00
18022;BME280;9136;48.822;7.966;2023-04-28T08:23:59;99910.81;;;13.65;100.00
18022;BME280;9136;48.822;7.966;2023-04-28T08:26:47;99922.16;;;13.84;100.00
18022;BME280;9136;48.822;7.966;2023-04-28T08:29:38;99930.31;;;13.97;100.00
18022;BME280;9136;48.822;7.966;2023-04-28T08:32:26;99924.63;;;14.22;100.00
18022;BME280;9136;48.822;7.966;2023-04-28T08:35:14;99924.94;;;14.16;100.00
18022;BME280;9136;48.822;7.966;2023-04-28T08:38:02;99942.47;;;14.34;100.00
18022;BME280;9136;48.822;7.966;2023-04-28T08:40:50;99909.31;;;14.28;100.00
18022;BME280;9136;48.822;7.966;2023-04-28T08:43:38;99916.53;;;14.25;100.00
18022;BME280;9136;48.822;7.966;2023-04-28T08:46:29;99933.19;;;14.43;100.00
18022;BME280;9136;48.822;7.966;2023-04-28T08:49:18;99935.50;;;14.66;100.00
18022;BME280;9136;48.822;7.966;2023-04-28T08:52:11;99925.72;;;14.68;100.00
18022;BME280;9136;48.822;7.966;2023-04-28T08:55:05;99932.88;;;14.82;100.00
18022;BME280;9136;48.822;7.966;2023-04-28T08:57:55;99930.56;;;14.76;100.00
18022;BME280;9136;48.822;7.966;2023-04-28T09:00:43;99957.56;;;14.98;100.00
18022;BME280;9136;48.822;7.966;2023-04-28T09:03:33;99924.63;;;14.88;100.00
18022;BME280;9136;48.822;7.966;2023-04-28T09:06:21;99923.50;;;14.92;100.00
18022;BME280;9136;48.822;7.966;2023-04-28T09:09:17;99960.88;;;15.02;100.00
18022;BME280;9136;48.822;7.966;2023-04-28T09:12:06;99940.16;;;15.26;100.00
18022;BME280;9136;48.822;7.966;2023-04-28T09:14:57;99940.22;;;15.24;100.00
18022;BME280;9136;48.822;7.966;2023-04-28T09:17:49;99957.97;;;15.38;100.00
18022;BME280;9136;48.822;7.966;2023-04-28T09:20:39;99942.03;;;15.54;100.00
18022;BME280;9136;48.822;7.966;2023-04-28T09:23:27;99960.00;;;15.49;100.00
18022;BME280;9136;48.822;7.966;2023-04-28T09:26:15;99939.41;;;15.54;100.00
18022;BME280;9136;48.822;7.966;2023-04-28T09:29:11;99941.19;;;15.53;100.00
18022;BME280;9136;48.822;7.966;2023-04-28T09:32:12;99924.75;;;15.32;100.00
18022;BME280;9136;48.822;7.966;2023-04-28T09:35:01;99928.84;;;15.38;100.00
18022;BME280;9136;48.822;7.966;2023-04-28T09:37:58;99954.78;;;15.63;100.00
18022;BME280;9136;48.822;7.966;2023-04-28T09:40:54;99937.19;;;15.62;100.00
18022;BME280;9136;48.822;7.966;2023-04-28T09:43:43;99961.84;;;15.78;100.00
18022;BME280;9136;48.822;7.966;2023-04-28T09:46:31;99946.09;;;15.91;100.00
18022;BME280;9136;48.822;7.966;2023-04-28T09:49:19;99972.53;;;16.07;100.00
18022;BME280;9136;48.822;7.966;2023-04-28T09:52:15;99957.16;;;15.83;100.00
18022;BME280;9136;48.822;7.966;2023-04-28T09:55:06;99944.06;;;15.80;100.00
18022;BME280;9136;48.822;7.966;2023-04-28T09:57:55;99932.28;;;15.86;100.00
18022;BME280;9136;48.822;7.966;2023-04-28T10:00:51;99970.38;;;16.13;100.00
18022;BME280;9136;48.822;7.966;2023-04-28T10:03:39;99930.75;;;16.12;100.00
18022;BME280;9136;48.822;7.966;2023-04-28T10:06:28;99955.53;;;16.25;100.00
18022;BME280;9136;48.822;7.966;2023-04-28T10:09:17;99958.56;;;16.19;100.00
18022;BME280;9136;48.822;7.966;2023-04-28T10:12:13;99953.16;;;16.20;100.00
18022;BME280;9136;48.822;7.966;2023-04-28T10:15:01;99944.47;;;16.47;100.00
18022;BME280;9136;48.822;7.966;2023-04-28T10:17:50;99959.03;;;16.70;100.00
18022;BME280;9136;48.822;7.966;2023-04-28T10:20:38;99934.25;;;16.55;100.00
18022;BME280;9136;48.822;7.966;2023-04-28T10:23:57;99974.63;;;16.74;100.00
18022;BME280;9136;48.822;7.966;2023-04-28T10:27:03;99935.38;;;16.37;100.00
18022;BME280;9136;48.822;7.966;2023-04-28T10:29:53;99962.06;;;16.19;100.00
18022;BME280;9136;48.822;7.966;2023-04-28T10:32:40;99941.50;;;16.09;100.00
18022;BME280;9136;48.822;7.966;2023-04-28T10:35:41;99933.59;;;16.37;100.00
18022;BME280;9136;48.822;7.966;2023-04-28T10:38:29;99939.19;;;16.61;100.00
18022;BME280;9136;48.822;7.966;2023-04-28T10:41:30;99931.31;;;17.02;100.00
18022;BME280;9136;48.822;7.966;2023-04-28T10:44:41;99924.16;;;17.17;100.00
18022;BME280;9136;48.822;7.966;2023-04-28T10:48:00;99930.56;;;16.86;100.00
18022;BME280;9136;48.822;7.966;2023-04-28T10:51:20;99938.09;;;17.21;100.00
18022;BME280;9136;48.822;7.966;2023-04-28T10:54:13;99937.94;;;17.09;100.00
18022;BME280;9136;48.822;7.966;2023-04-28T10:57:18;99922.22;;;17.33;100.00
18022;BME280;9136;48.822;7.966;2023-04-28T11:00:27;99923.06;;;17.34;100.00
18022;BME280;9136;48.822;7.966;2023-04-28T11:03:41;99942.50;;;17.61;100.00
18022;BME280;9136;48.822;7.966;2023-04-28T11:06:32;99937.75;;;18.06;100.00
18022;BME280;9136;48.822;7.966;2023-04-28T11:09:46;99931.81;;;18.53;100.00
18022;BME280;9136;48.822;7.966;2023-04-28T11:12:35;99928.91;;;18.06;100.00
18022;BME280;9136;48.822;7.966;2023-04-28T11:15:22;99903.25;;;18.05;100.00
18022;BME280;9136;48.822;7.966;2023-04-28T11:18:15;99907.94;;;17.88;100.00
18022;BME280;9136;48.822;7.966;2023-04-28T11:21:10;99907.09;;;17.48;100.00
18022;BME280;9136;48.822;7.966;2023-04-28T11:23:58;99906.25;;;17.06;100.00
18022;BME280;9136;48.822;7.966;2023-04-28T11:26:46;99900.47;;;16.73;100.00
18022;BME280;9136;48.822;7.966;2023-04-28T11:29:35;99910.66;;;16.65;100.00
18022;BME280;9136;48.822;7.966;2023-04-28T11:32:26;99901.59;;;16.69;100.00
18022;BME280;9136;48.822;7.966;2023-04-28T11:35:14;99901.00;;;16.92;100.00
18022;BME280;9136;48.822;7.966;2023-04-28T11:38:04;99901.38;;;17.00;100.00
18022;BME280;9136;48.822;7.966;2023-04-28T11:40:56;99885.34;;;17.02;100.00
18022;BME280;9136;48.822;7.966;2023-04-28T11:43:43;99883.47;;;17.16;100.00
18022;BME280;9136;48.822;7.966;2023-04-28T11:46:31;99879.34;;;17.12;100.00
18022;BME280;9136;48.822;7.966;2023-04-28T11:49:19;99890.94;;;16.97;100.00
18022;BME280;9136;48.822;7.966;2023-04-28T11:52:10;99876.88;;;16.68;100.00
18022;BME280;9136;48.822;7.966;2023-04-28T11:58:21;99887.38;;;16.84;100.00
18022;BME280;9136;48.822;7.966;2023-04-28T12:01:11;99881.69;;;16.76;100.00
18022;BME280;9136;48.822;7.966;2023-04-28T12:04:00;99896.56;;;16.78;100.00
18022;BME280;9136;48.822;7.966;2023-04-28T12:06:58;99921.75;;;16.85;100.00
18022;BME280;9136;48.822;7.966;2023-04-28T12:10:08;99907.28;;;16.77;100.00
18022;BME280;9136;48.822;7.966;2023-04-28T12:12:56;99922.06;;;16.81;100.00
18022;BME280;9136;48.822;7.966;2023-04-28T12:15:45;99919.09;;;17.54;100.00
18022;BME280;9136;48.822;7.966;2023-04-28T12:18:35;99897.84;;;17.54;100.00
18022;BME280;9136;48.822;7.966;2023-04-28T12:21:23;99924.66;;;17.09;100.00
18022;BME280;9136;48.822;7.966;2023-04-28T12:24:16;99891.25;;;16.64;100.00
18022;BME280;9136;48.822;7.966;2023-04-28T12:27:18;99902.72;;;16.65;100.00
18022;BME280;9136;48.822;7.966;2023-04-28T12:30:25;99918.81;;;16.62;100.00
18022;BME280;9136;48.822;7.966;2023-04-28T12:33:24;99907.28;;;16.34;100.00
18022;BME280;9136;48.822;7.966;2023-04-28T12:36:15;99919.28;;;16.40;100.00
18022;BME280;9136;48.822;7.966;2023-04-28T12:39:03;99904.03;;;16.15;100.00
18022;BME280;9136;48.822;7.966;2023-04-28T12:41:51;99908.41;;;16.16;100.00
18022;BME280;9136;48.822;7.966;2023-04-28T12:45:04;99890.78;;;16.15;100.00
18022;BME280;9136;48.822;7.966;2023-04-28T12:48:05;99897.94;;;15.98;100.00
18022;BME280;9136;48.822;7.966;2023-04-28T12:50:56;99922.84;;;16.10;100.00
18022;BME280;9136;48.822;7.966;2023-04-28T12:53:44;99927.66;;;15.89;100.00
18022;BME280;9136;48.822;7.966;2023-04-28T12:56:36;99918.19;;;15.85;100.00
18022;BME280;9136;48.822;7.966;2023-04-28T12:59:24;99933.09;;;16.16;100.00
18022;BME280;9136;48.822;7.966;2023-04-28T13:02:15;99930.63;;;16.13;100.00
18022;BME280;9136;48.822;7.966;2023-04-28T13:05:03;99934.41;;;16.09;100.00
18022;BME280;9136;48.822;7.966;2023-04-28T13:07:53;99900.59;;;15.98;100.00
18022;BME280;9136;48.822;7.966;2023-04-28T13:10:40;99913.88;;;16.13;100.00
18022;BME280;9136;48.822;7.966;2023-04-28T13:13:30;99913.13;;;16.25;100.00
18022;BME280;9136;48.822;7.966;2023-04-28T13:16:20;99936.91;;;16.26;100.00
18022;BME280;9136;48.822;7.966;2023-04-28T13:19:17;99931.94;;;16.20;100.00
18022;BME280;9136;48.822;7.966;2023-04-28T13:22:05;99892.88;;;16.24;100.00
18022;BME280;9136;48.822;7.966;2023-04-28T13:25:11;99916.16;;;16.19;100.00
18022;BME280;9136;48.822;7.966;2023-04-28T13:28:01;99906.88;;;16.12;100.00
18022;BME280;9136;48.822;7.966;2023-04-28T13:30:50;99899.94;;;16.09;100.00
18022;BME280;9136;48.822;7.966;2023-04-28T13:33:38;99903.44;;;15.95;100.00
18022;BME280;9136;48.822;7.966;2023-04-28T13:36:28;99893.59;;;15.83;100.00
18022;BME280;9136;48.822;7.966;2023-04-28T13:39:16;99882.75;;;16.02;100.00
18022;BME280;9136;48.822;7.966;2023-04-28T13:42:52;99865.50;;;16.09;100.00
18022;BME280;9136;48.822;7.966;2023-04-28T13:45:34;99872.03;;;16.18;100.00
18022;BME280;9136;48.822;7.966;2023-04-28T13:48:22;99861.25;;;16.21;100.00
18022;BME280;9136;48.822;7.966;2023-04-28T13:51:10;99894.00;;;16.48;100.00
18022;BME280;9136;48.822;7.966;2023-04-28T13:53:58;99862.19;;;16.63;100.00
18022;BME280;9136;48.822;7.966;2023-04-28T13:56:56;99852.94;;;17.24;100.00
18022;BME280;9136;48.822;7.966;2023-04-28T13:59:45;99857.28;;;16.98;100.00
18022;BME280;9136;48.822;7.966;2023-04-28T14:02:33;99860.41;;;17.04;100.00
18022;BME280;9136;48.822;7.966;2023-04-28T14:05:22;99861.88;;;17.35;100.00
18022;BME280;9136;48.822;7.966;2023-04-28T14:08:10;99862.09;;;17.32;100.00
18022;BME280;9136;48.822;7.966;2023-04-28T14:10:58;99854.28;;;17.16;100.00
18022;BME280;9136;48.822;7.966;2023-04-28T14:13:46;99852.28;;;17.47;100.00
18022;BME280;9136;48.822;7.966;2023-04-28T14:16:35;99848.69;;;17.61;100.00
18022;BME280;9136;48.822;7.966;2023-04-28T14:19:23;99847.13;;;17.84;100.00
18022;BME280;9136;48.822;7.966;2023-04-28T14:22:12;99827.38;;;17.88;100.00
18022;BME280;9136;48.822;7.966;2023-04-28T14:25:00;99850.31;;;18.40;100.00
18022;BME280;9136;48.822;7.966;2023-04-28T14:27:48;99855.41;;;18.05;100.00
18022;BME280;9136;48.822;7.966;2023-04-28T14:30:36;99829.84;;;17.51;100.00
18022;BME280;9136;48.822;7.966;2023-04-28T14:33:25;99838.66;;;17.39;100.00
18022;BME280;9136;48.822;7.966;2023-04-28T14:36:13;99834.31;;;17.51;100.00
18022;BME280;9136;48.822;7.966;2023-04-28T14:39:01;99825.56;;;17.36;100.00
18022;BME280;9136;48.822;7.966;2023-04-28T14:41:49;99814.66;;;17.40;100.00
18022;BME280;9136;48.822;7.966;2023-04-28T14:44:37;99806.44;;;17.31;100.00
18022;BME280;9136;48.822;7.966;2023-04-28T14:47:24;99807.53;;;17.01;100.00
18022;BME280;9136;48.822;7.966;2023-04-28T14:50:14;99836.53;;;17.04;100.00
18022;BME280;9136;48.822;7.966;2023-04-28T14:53:02;99806.63;;;16.88;100.00
18022;BME280;9136;48.822;7.966;2023-04-28T14:55:52;99820.16;;;16.71;100.00
18022;BME280;9136;48.822;7.966;2023-04-28T14:58:40;99818.22;;;16.58;100.00
18022;BME280;9136;48.822;7.966;2023-04-28T15:01:29;99832.75;;;16.53;100.00
18022;BME280;9136;48.822;7.966;2023-04-28T15:04:16;99797.16;;;16.43;100.00
18022;BME280;9136;48.822;7.966;2023-04-28T15:07:06;99811.63;;;16.51;100.00